createdAt,value
2022-08-19T00:00:21.327Z,97933.25
2022-08-19T00:01:30.345Z,97943.66
2022-08-19T00:02:32.211Z,97941.72
2022-08-19T00:03:33.792Z,97944.81
2022-08-19T00:04:36.576Z,97940.59
2022-08-19T00:05:38.154Z,97942.13
2022-08-19T00:06:41.919Z,97935.94
2022-08-19T00:07:44.087Z,97938.25
2022-08-19T00:08:45.753Z,97948.28
2022-08-19T00:09:47.475Z,97942.50
2022-08-19T00:10:49.024Z,97941.34
2022-08-19T00:11:51.826Z,97945.56
2022-08-19T00:12:53.329Z,97940.19
2022-08-19T00:13:56.510Z,97947.16
2022-08-19T00:14:58.132Z,97933.66
2022-08-19T00:16:00.501Z,97935.59
2022-08-19T00:17:02.795Z,97942.88
2022-08-19T00:18:04.301Z,97940.22
2022-08-19T00:19:06.392Z,97947.91
2022-08-19T00:20:10.798Z,97946.38
2022-08-19T00:21:12.349Z,97938.28
2022-08-19T00:22:14.043Z,97949.47
2022-08-19T00:23:15.527Z,97949.84
2022-08-19T00:24:17.306Z,97957.56
2022-08-19T00:25:18.935Z,97959.47
2022-08-19T00:26:31.991Z,97954.47
2022-08-19T00:27:33.558Z,97950.59
2022-08-19T00:28:35.079Z,97946.78
2022-08-19T00:29:37.622Z,97940.97
2022-08-19T00:30:39.119Z,97939.03
2022-08-19T00:31:40.898Z,97939.44
2022-08-19T00:32:42.396Z,97942.91
2022-08-19T00:33:44.410Z,97939.81
2022-08-19T00:34:45.946Z,97945.97
2022-08-19T00:35:47.428Z,97940.59
2022-08-19T00:36:58.212Z,97937.88
2022-08-19T00:37:59.732Z,97934.41
2022-08-19T00:39:01.517Z,97931.34
2022-08-19T00:40:05.943Z,97925.16
2022-08-19T00:41:07.874Z,97925.16
2022-08-19T00:42:09.381Z,97917.88
2022-08-19T00:43:12.047Z,97916.69
2022-08-19T00:44:18.108Z,97914.00
2022-08-19T00:45:22.470Z,97904.75
2022-08-19T00:46:24.726Z,97903.59
2022-08-19T00:47:26.473Z,97898.56
2022-08-19T00:48:29.383Z,97895.13
2022-08-19T00:49:53.054Z,97899.75
2022-08-19T00:50:55.322Z,97895.88
2022-08-19T00:52:12.491Z,97902.03
2022-08-19T00:53:17.675Z,97908.59
2022-08-19T00:54:19.757Z,97910.13
2022-08-19T00:55:31.790Z,97917.47
2022-08-19T00:56:34.344Z,97917.88
2022-08-19T00:57:40.703Z,97922.50
2022-08-19T00:58:42.351Z,97924.41
2022-08-19T00:59:53.559Z,97925.59
2022-08-19T01:01:05.144Z,97924.41
2022-08-19T01:02:07.093Z,97929.81
2022-08-19T01:03:12.179Z,97927.13
2022-08-19T01:04:14.455Z,97929.41
2022-08-19T01:05:20.982Z,97929.06
2022-08-19T01:06:22.716Z,97932.88
2022-08-19T01:07:24.534Z,97934.06
2022-08-19T01:08:26.086Z,97937.50
2022-08-19T01:09:27.717Z,97932.50
2022-08-19T01:10:36.810Z,97937.53
2022-08-19T01:11:43.943Z,97942.53
2022-08-19T01:12:46.969Z,97947.53
2022-08-19T01:13:50.414Z,97944.84
2022-08-19T01:14:53.842Z,97941.38
2022-08-19T01:16:00.066Z,97940.25
2022-08-19T01:17:02.077Z,97940.59
2022-08-19T01:18:09.077Z,97934.84
2022-08-19T01:19:22.846Z,97934.44
2022-08-19T01:20:25.474Z,97932.50
2022-08-19T01:21:42.650Z,97932.13
2022-08-19T01:22:51.431Z,97934.44
2022-08-19T01:23:53.041Z,97928.28
2022-08-19T01:24:55.316Z,97930.22
2022-08-19T01:25:58.084Z,97937.91
2022-08-19T01:27:00.631Z,97929.44
2022-08-19T01:28:10.578Z,97930.22
2022-08-19T01:29:13.446Z,97925.22
2022-08-19T01:30:24.116Z,97934.84
2022-08-19T01:31:28.077Z,97935.59
2022-08-19T01:32:34.007Z,97929.81
2022-08-19T01:33:35.783Z,97925.97
2022-08-19T01:34:37.269Z,97927.50
2022-08-19T01:35:38.933Z,97927.13
2022-08-19T01:36:44.067Z,97930.59
2022-08-19T01:37:55.149Z,97932.16
2022-08-19T01:38:57.035Z,97925.94
2022-08-19T01:39:58.778Z,97921.34
2022-08-19T01:41:00.324Z,97924.06
2022-08-19T01:42:03.808Z,97921.34
2022-08-19T01:43:05.960Z,97916.72
2022-08-19T01:44:17.959Z,97919.03
2022-08-19T01:45:24.194Z,97913.25
2022-08-19T01:46:25.714Z,97912.88
2022-08-19T01:47:27.396Z,97919.03
2022-08-19T01:48:34.236Z,97923.28
2022-08-19T01:49:37.092Z,97912.88
2022-08-19T01:50:38.694Z,97919.41
2022-08-19T01:51:40.625Z,97915.59
2022-08-19T01:52:44.008Z,97927.13
2022-08-19T01:53:48.781Z,97908.66
2022-08-19T01:54:50.279Z,97915.97
2022-08-19T01:55:51.923Z,97917.13
2022-08-19T01:56:58.675Z,97915.97
2022-08-19T01:58:03.605Z,97922.13
2022-08-19T01:59:11.131Z,97916.34
2022-08-19T02:00:15.489Z,97912.88
2022-08-19T02:01:18.054Z,97916.75
2022-08-19T02:02:19.677Z,97918.28
2022-08-19T02:03:21.191Z,97915.22
2022-08-19T02:04:22.763Z,97919.06
2022-08-19T02:05:24.941Z,97916.75
2022-08-19T02:06:27.081Z,97920.59
2022-08-19T02:07:28.878Z,97924.06
2022-08-19T02:08:32.015Z,97927.16
2022-08-19T02:09:33.695Z,97928.28
2022-08-19T02:10:40.202Z,97933.31
2022-08-19T02:11:42.229Z,97931.00
2022-08-19T02:12:44.316Z,97947.19
2022-08-19T02:13:46.256Z,97942.94
2022-08-19T02:14:48.060Z,97942.19
2022-08-19T02:15:49.637Z,97942.19
2022-08-19T02:16:51.362Z,97931.78
2022-08-19T02:17:52.969Z,97936.38
2022-08-19T02:18:54.823Z,97931.75
2022-08-19T02:19:57.300Z,97929.84
2022-08-19T02:20:58.830Z,97922.53
2022-08-19T02:22:01.034Z,97920.59
2022-08-19T02:23:02.611Z,97922.53
2022-08-19T02:24:05.133Z,97919.03
2022-08-19T02:25:06.870Z,97917.91
2022-08-19T02:26:08.807Z,97927.16
2022-08-19T02:27:10.299Z,97933.69
2022-08-19T02:28:15.521Z,97930.25
2022-08-19T02:29:19.701Z,97926.78
2022-08-19T02:30:22.338Z,97921.38
2022-08-19T02:31:26.018Z,97927.56
2022-08-19T02:32:27.490Z,97932.53
2022-08-19T02:33:29.107Z,97932.53
2022-08-19T02:34:30.822Z,97930.59
2022-08-19T02:35:32.424Z,97925.56
2022-08-19T02:36:34.017Z,97927.13
2022-08-19T02:37:36.030Z,97931.38
2022-08-19T02:38:37.714Z,97934.84
2022-08-19T02:39:39.249Z,97934.47
2022-08-19T02:40:40.768Z,97930.22
2022-08-19T02:41:42.305Z,97936.00
2022-08-19T02:42:43.783Z,97928.66
2022-08-19T02:44:28.942Z,97927.50
2022-08-19T02:45:08.350Z,97934.06
2022-08-19T02:46:14.572Z,97924.44
2022-08-19T02:47:16.133Z,97926.78
2022-08-19T02:48:21.465Z,97926.78
2022-08-19T02:49:23.499Z,97932.53
2022-08-19T02:50:25.069Z,97934.84
2022-08-19T02:51:30.983Z,97929.81
2022-08-19T02:52:34.076Z,97927.91
2022-08-19T02:53:35.633Z,97924.44
2022-08-19T02:54:37.115Z,97927.13
2022-08-19T02:55:46.787Z,97925.22
2022-08-19T02:56:48.299Z,97933.31
2022-08-19T02:57:50.175Z,97923.69
2022-08-19T02:58:51.749Z,97927.13
2022-08-19T02:59:54.724Z,97921.34
2022-08-19T03:00:57.460Z,97921.72
2022-08-19T03:01:59.156Z,97920.56
2022-08-19T03:03:00.707Z,97922.13
2022-08-19T03:04:05.858Z,97922.13
2022-08-19T03:05:09.236Z,97922.91
2022-08-19T03:06:13.958Z,97920.97
2022-08-19T03:07:16.884Z,97913.66
2022-08-19T03:08:19.331Z,97918.28
2022-08-19T03:09:23.095Z,97912.88
2022-08-19T03:10:24.573Z,97911.34
2022-08-19T03:11:30.245Z,97920.22
2022-08-19T03:12:31.797Z,97916.75
2022-08-19T03:13:33.350Z,97922.91
2022-08-19T03:14:35.075Z,97921.75
2022-08-19T03:15:41.007Z,97928.66
2022-08-19T03:16:48.245Z,97924.03
2022-08-19T03:17:49.936Z,97922.88
2022-08-19T03:18:53.046Z,97921.34
2022-08-19T03:19:54.564Z,97923.66
2022-08-19T03:20:56.148Z,97929.81
2022-08-19T03:21:58.625Z,97925.97
2022-08-19T03:23:00.141Z,97929.81
2022-08-19T03:24:09.164Z,97939.81
2022-08-19T03:25:10.803Z,97944.03
2022-08-19T03:26:16.578Z,97938.66
2022-08-19T03:27:18.572Z,97939.81
2022-08-19T03:28:21.120Z,97949.41
2022-08-19T03:29:30.352Z,97947.13
2022-08-19T03:30:32.554Z,97949.41
2022-08-19T03:31:43.935Z,97945.56
2022-08-19T03:32:47.366Z,97945.56
2022-08-19T03:33:55.465Z,97939.03
2022-08-19T03:34:56.944Z,97936.31
2022-08-19T03:36:05.298Z,97939.41
2022-08-19T03:37:09.810Z,97935.94
2022-08-19T03:38:11.321Z,97934.38
2022-08-19T03:39:12.924Z,97937.09
2022-08-19T03:40:16.535Z,97937.09
2022-08-19T03:41:21.251Z,97936.31
2022-08-19T03:42:32.547Z,97939.75
2022-08-19T03:43:45.054Z,97929.78
2022-08-19T03:44:46.533Z,97941.69
2022-08-19T03:45:48.092Z,97945.13
2022-08-19T03:46:53.797Z,97940.91
2022-08-19T03:47:56.256Z,97943.97
2022-08-19T03:49:00.900Z,97945.91
2022-08-19T03:50:02.688Z,97947.81
2022-08-19T03:51:04.320Z,97943.97
2022-08-19T03:52:05.889Z,97940.88
2022-08-19T03:53:07.538Z,97942.34
2022-08-19T03:54:12.852Z,97938.94
2022-08-19T03:55:14.577Z,97938.19
2022-08-19T03:56:16.366Z,97938.13
2022-08-19T03:57:17.826Z,97935.47
2022-08-19T03:58:19.355Z,97927.75
2022-08-19T03:59:30.618Z,97931.22
2022-08-19T04:00:32.161Z,97937.75
2022-08-19T04:01:35.299Z,97935.50
2022-08-19T04:02:37.402Z,97939.72
2022-08-19T04:03:40.269Z,97940.06
2022-08-19T04:04:44.561Z,97942.78
2022-08-19T04:05:46.982Z,97936.63
2022-08-19T04:06:48.999Z,97945.44
2022-08-19T04:07:50.549Z,97941.19
2022-08-19T04:08:54.053Z,97941.56
2022-08-19T04:09:55.570Z,97941.97
2022-08-19T04:10:57.045Z,97938.88
2022-08-19T04:11:58.789Z,97941.97
2022-08-19T04:13:00.395Z,97943.94
2022-08-19T04:14:02.400Z,97945.13
2022-08-19T04:15:06.472Z,97944.72
2022-08-19T04:16:08.080Z,97943.16
2022-08-19T04:17:09.642Z,97942.03
2022-08-19T04:18:11.449Z,97947.78
2022-08-19T04:19:14.744Z,97941.22
2022-08-19T04:20:16.567Z,97945.03
2022-08-19T04:21:21.433Z,97947.75
2022-08-19T04:22:22.940Z,97948.94
2022-08-19T04:23:28.784Z,97940.47
2022-08-19T04:24:31.158Z,97950.81
2022-08-19T04:25:38.005Z,97936.56
2022-08-19T04:26:39.595Z,97945.41
2022-08-19T04:27:41.123Z,97942.72
2022-08-19T04:28:44.409Z,97938.50
2022-08-19T04:29:45.959Z,97948.09
2022-08-19T04:30:50.153Z,97944.25
2022-08-19T04:31:53.147Z,97944.25
2022-08-19T04:32:54.848Z,97941.56
2022-08-19T04:33:58.557Z,97942.34
2022-08-19T04:35:01.489Z,97938.97
2022-08-19T04:36:20.244Z,97939.72
2022-08-19T04:37:22.457Z,97932.75
2022-08-19T04:38:24.016Z,97933.88
2022-08-19T04:39:29.671Z,97931.56
2022-08-19T04:40:31.284Z,97934.25
2022-08-19T04:41:34.065Z,97929.66
2022-08-19T04:42:35.550Z,97932.78
2022-08-19T04:43:39.391Z,97928.56
2022-08-19T04:44:46.000Z,97935.81
2022-08-19T04:45:48.556Z,97933.88
2022-08-19T04:46:52.117Z,97937.34
2022-08-19T04:47:58.914Z,97945.41
2022-08-19T04:49:20.561Z,97937.72
2022-08-19T04:50:22.096Z,97947.75
2022-08-19T04:51:23.878Z,97950.03
2022-08-19T04:52:25.406Z,97946.56
2022-08-19T04:53:29.235Z,97948.88
2022-08-19T04:54:37.828Z,97952.34
2022-08-19T04:55:42.345Z,97951.59
2022-08-19T04:56:43.951Z,97951.59
2022-08-19T04:57:45.560Z,97955.88
2022-08-19T04:58:47.678Z,97960.47
2022-08-19T04:59:49.325Z,97955.47
2022-08-19T05:00:51.163Z,97964.69
2022-08-19T05:01:52.706Z,97959.31
2022-08-19T05:02:54.496Z,97967.78
2022-08-19T05:03:57.258Z,97963.13
2022-08-19T05:04:59.790Z,97962.75
2022-08-19T05:06:16.048Z,97961.19
2022-08-19T05:07:17.586Z,97963.56
2022-08-19T05:08:30.713Z,97967.78
2022-08-19T05:09:58.191Z,97967.41
2022-08-19T05:10:54.711Z,97961.63
2022-08-19T05:11:56.315Z,97967.81
2022-08-19T05:12:57.786Z,97970.13
2022-08-19T05:13:59.390Z,97969.34
2022-08-19T05:15:01.119Z,97965.88
2022-08-19T05:16:02.838Z,97975.53
2022-08-19T05:17:26.012Z,97971.31
2022-08-19T05:18:26.657Z,97976.72
2022-08-19T05:19:28.197Z,97975.94
2022-08-19T05:20:29.719Z,97980.94
2022-08-19T05:21:32.673Z,97978.66
2022-08-19T05:22:34.279Z,97980.94
2022-08-19T05:23:35.836Z,97983.28
2022-08-19T05:24:51.231Z,97989.44
2022-08-19T05:25:58.145Z,97985.97
2022-08-19T05:26:59.670Z,97985.97
2022-08-19T05:28:01.135Z,97985.19
2022-08-19T05:29:03.504Z,97988.66
2022-08-19T05:30:06.141Z,97989.78
2022-08-19T05:31:07.693Z,97995.19
2022-08-19T05:32:09.186Z,97994.78
2022-08-19T05:33:10.811Z,98005.94
2022-08-19T05:34:20.131Z,98008.66
2022-08-19T05:35:22.082Z,98018.25
2022-08-19T05:36:23.660Z,98013.25
2022-08-19T05:37:25.269Z,98016.34
2022-08-19T05:38:26.775Z,98021.34
2022-08-19T05:39:34.090Z,98023.25
2022-08-19T05:40:36.506Z,98026.72
2022-08-19T05:41:46.243Z,98027.13
2022-08-19T05:42:55.411Z,98030.97
2022-08-19T05:43:58.762Z,98039.06
2022-08-19T05:45:00.326Z,98043.66
2022-08-19T05:46:02.089Z,98046.75
2022-08-19T05:47:05.844Z,98051.75
2022-08-19T05:48:07.390Z,98047.94
2022-08-19T05:49:09.337Z,98046.34
2022-08-19T05:50:10.921Z,98046.78
2022-08-19T05:51:13.139Z,98038.31
2022-08-19T05:52:25.751Z,98049.09
2022-08-19T05:53:28.095Z,98044.47
2022-08-19T05:54:29.669Z,98046.00
2022-08-19T05:55:31.786Z,98046.38
2022-08-19T05:56:34.693Z,98044.81
2022-08-19T05:57:36.247Z,98047.91
2022-08-19T05:58:39.608Z,98042.88
2022-08-19T05:59:41.156Z,98039.81
2022-08-19T06:00:44.748Z,98039.06
2022-08-19T06:01:47.019Z,98044.06
2022-08-19T06:02:48.655Z,98039.84
2022-08-19T06:03:50.219Z,98040.59
2022-08-19T06:04:51.720Z,98042.16
2022-08-19T06:05:53.284Z,98043.75
2022-08-19T06:06:55.286Z,98052.22
2022-08-19T06:07:57.073Z,98044.13
2022-08-19T06:08:58.535Z,98044.13
2022-08-19T06:10:01.414Z,98043.75
2022-08-19T06:11:33.958Z,98042.19
2022-08-19T06:12:36.547Z,98052.56
2022-08-19T06:13:38.021Z,98044.13
2022-08-19T06:14:41.870Z,98034.88
2022-08-19T06:15:43.597Z,98045.66
2022-08-19T06:16:45.952Z,98046.81
2022-08-19T06:17:47.561Z,98043.34
2022-08-19T06:18:51.302Z,98047.59
2022-08-19T06:19:53.235Z,98051.06
2022-08-19T06:20:56.174Z,98048.75
2022-08-19T06:21:59.850Z,98050.31
2022-08-19T06:23:02.175Z,98047.63
2022-08-19T06:24:05.977Z,98044.94
2022-08-19T06:25:08.393Z,98043.75
2022-08-19T06:26:13.178Z,98046.47
2022-08-19T06:27:14.702Z,98047.22
2022-08-19T06:28:16.438Z,98048.38
2022-08-19T06:29:23.988Z,98048.00
2022-08-19T06:30:26.035Z,98046.47
2022-08-19T06:31:29.870Z,98046.50
2022-08-19T06:32:31.432Z,98041.47
2022-08-19T06:33:32.945Z,98034.56
2022-08-19T06:34:35.470Z,98041.13
2022-08-19T06:35:40.805Z,98036.13
2022-08-19T06:36:45.544Z,98034.97
2022-08-19T06:37:47.169Z,98036.88
2022-08-19T06:38:48.870Z,98036.50
2022-08-19T06:39:51.286Z,98043.06
2022-08-19T06:41:07.805Z,98040.38
2022-08-19T06:42:11.444Z,98046.91
2022-08-19T06:43:13.079Z,98044.59
2022-08-19T06:44:16.663Z,98045.75
2022-08-19T06:45:18.623Z,98043.06
2022-08-19T06:46:26.890Z,98045.75
2022-08-19T06:47:28.917Z,98053.47
2022-08-19T06:48:31.698Z,98048.88
2022-08-19T06:49:36.136Z,98052.69
2022-08-19T06:50:39.450Z,98046.94
2022-08-19T06:51:44.710Z,98046.19
2022-08-19T06:52:46.437Z,98041.16
2022-08-19T06:53:52.921Z,98045.38
2022-08-19T06:54:56.330Z,98048.09
2022-08-19T06:55:58.352Z,98046.94
2022-08-19T06:57:01.427Z,98040.41
2022-08-19T06:58:04.312Z,98045.03
2022-08-19T06:59:10.055Z,98053.53
2022-08-19T07:00:12.949Z,98050.44
2022-08-19T07:01:14.726Z,98043.88
2022-08-19T07:03:22.780Z,98044.66
2022-08-19T07:04:28.516Z,98037.72
2022-08-19T07:05:30.068Z,98038.50
2022-08-19T07:06:44.028Z,98038.47
2022-08-19T07:07:47.554Z,98035.78
2022-08-19T07:08:49.297Z,98036.94
2022-08-19T07:09:59.290Z,98039.25
2022-08-19T07:11:09.412Z,98040.78
2022-08-19T07:12:13.405Z,98044.25
2022-08-19T07:13:15.083Z,98044.66
2022-08-19T07:14:19.622Z,98051.97
2022-08-19T07:15:21.636Z,98053.50
2022-08-19T07:16:29.202Z,98046.94
2022-08-19T07:17:32.230Z,98057.75
2022-08-19T07:18:36.650Z,98050.06
2022-08-19T07:19:40.343Z,98047.34
2022-08-19T07:20:42.241Z,98051.22
2022-08-19T07:21:44.169Z,98058.91
2022-08-19T07:22:45.655Z,98047.34
2022-08-19T07:23:48.276Z,98056.22
2022-08-19T07:24:51.146Z,98050.84
2022-08-19T07:25:53.464Z,98055.47
2022-08-19T07:26:57.636Z,98054.31
2022-08-19T07:27:59.583Z,98055.84
2022-08-19T07:29:03.287Z,98065.06
2022-08-19T07:30:06.425Z,98059.69
2022-08-19T07:31:08.884Z,98060.44
2022-08-19T07:32:11.637Z,98061.63
2022-08-19T07:33:15.147Z,98062.00
2022-08-19T07:34:16.895Z,98061.25
2022-08-19T07:35:18.706Z,98066.22
2022-08-19T07:36:24.287Z,98062.00
2022-08-19T07:37:32.377Z,98066.63
2022-08-19T07:38:35.041Z,98072.00
2022-08-19T07:39:38.532Z,98066.22
2022-08-19T07:40:40.081Z,98068.94
2022-08-19T07:41:41.899Z,98064.31
2022-08-19T07:42:43.506Z,98073.94
2022-08-19T07:43:45.261Z,98070.88
2022-08-19T07:44:50.781Z,98069.31
2022-08-19T07:45:54.007Z,98067.78
2022-08-19T07:46:57.453Z,98074.31
2022-08-19T07:47:59.075Z,98068.94
2022-08-19T07:49:00.686Z,98074.72
2022-08-19T07:50:02.467Z,98075.50
2022-08-19T07:51:06.425Z,98075.50
2022-08-19T07:52:10.458Z,98077.03
2022-08-19T07:53:12.220Z,98076.66
2022-08-19T07:54:13.951Z,98074.72
2022-08-19T07:55:40.674Z,98076.28
2022-08-19T07:56:38.997Z,98075.50
2022-08-19T07:57:40.546Z,98075.47
2022-08-19T07:58:45.107Z,98077.81
2022-08-19T07:59:46.615Z,98075.50
2022-08-19T08:00:50.934Z,98076.25
2022-08-19T08:01:52.734Z,98075.09
2022-08-19T08:02:55.641Z,98068.19
2022-08-19T08:03:58.866Z,98068.94
2022-08-19T08:05:00.378Z,98078.56
2022-08-19T08:06:01.926Z,98068.53
2022-08-19T08:07:05.150Z,98072.81
2022-08-19T08:08:06.646Z,98072.03
2022-08-19T08:09:09.074Z,98069.34
2022-08-19T08:10:20.727Z,98065.47
2022-08-19T08:11:24.058Z,98065.84
2022-08-19T08:12:34.536Z,98072.41
2022-08-19T08:13:36.734Z,98079.75
2022-08-19T08:14:44.470Z,98077.41
2022-08-19T08:15:48.602Z,98076.66
2022-08-19T08:16:53.795Z,98081.66
2022-08-19T08:17:55.356Z,98083.97
2022-08-19T08:18:56.957Z,98082.44
2022-08-19T08:19:59.238Z,98086.28
2022-08-19T08:21:00.954Z,98087.84
2022-08-19T08:22:03.794Z,98087.03
2022-08-19T08:23:05.401Z,98089.38
2022-08-19T08:24:06.944Z,98087.44
2022-08-19T08:25:15.298Z,98088.59
2022-08-19T08:26:16.831Z,98093.63
2022-08-19T08:27:22.652Z,98090.13
2022-08-19T08:28:29.392Z,98090.91
2022-08-19T08:29:34.889Z,98090.91
2022-08-19T08:30:36.979Z,98081.66
2022-08-19T08:31:38.925Z,98089.34
2022-08-19T08:32:41.532Z,98090.50
2022-08-19T08:33:43.059Z,98084.34
2022-08-19T08:34:44.597Z,98086.66
2022-08-19T08:35:49.300Z,98079.34
2022-08-19T08:36:50.860Z,98077.78
2022-08-19T08:37:54.929Z,98083.59
2022-08-19T08:40:13.057Z,98087.06
2022-08-19T08:41:23.249Z,98082.81
2022-08-19T08:42:41.604Z,98084.38
2022-08-19T08:43:47.546Z,98090.91
2022-08-19T08:45:03.115Z,98092.44
2022-08-19T08:46:06.297Z,98089.34
2022-08-19T08:47:16.858Z,98089.34
2022-08-19T08:48:52.931Z,98088.94
2022-08-19T08:50:03.496Z,98095.13
2022-08-19T08:51:12.461Z,98085.13
2022-08-19T08:52:22.502Z,98088.97
2022-08-19T08:53:32.534Z,98085.13
2022-08-19T08:54:48.811Z,98088.19
2022-08-19T08:55:56.307Z,98079.31
2022-08-19T08:56:57.874Z,98078.56
2022-08-19T08:58:06.848Z,98084.69
2022-08-19T08:59:21.413Z,98080.47
2022-08-19T09:00:30.285Z,98075.81
2022-08-19T09:01:33.174Z,98069.25
2022-08-19T09:02:34.739Z,98074.63
2022-08-19T09:03:39.319Z,98073.41
2022-08-19T09:04:40.958Z,98070.34
2022-08-19T09:05:57.714Z,98077.31
2022-08-19T09:07:34.968Z,98078.47
2022-08-19T09:08:40.658Z,98085.78
2022-08-19T09:09:51.484Z,98080.75
2022-08-19T09:10:57.058Z,98078.06
2022-08-19T09:12:27.797Z,98073.81
2022-08-19T09:13:31.992Z,98075.34
2022-08-19T09:14:56.099Z,98078.03
2022-08-19T09:16:08.661Z,98079.16
2022-08-19T09:17:11.032Z,98081.81
2022-08-19T09:18:18.148Z,98074.47
2022-08-19T09:19:22.414Z,98086.44
2022-08-19T09:20:26.255Z,98076.81
2022-08-19T09:21:33.007Z,98081.84
2022-08-19T09:22:36.510Z,98080.66
2022-08-19T09:23:38.087Z,98085.63
2022-08-19T09:24:39.579Z,98084.50
2022-08-19T09:25:41.152Z,98084.47
2022-08-19T09:26:51.832Z,98096.03
2022-08-19T09:27:55.602Z,98091.41
2022-08-19T09:29:04.434Z,98084.41
2022-08-19T09:30:07.285Z,98081.28
2022-08-19T09:31:08.799Z,98087.03
2022-08-19T09:32:26.114Z,98087.88
2022-08-19T09:33:28.502Z,98094.88
2022-08-19T09:34:37.907Z,98090.63
2022-08-19T09:35:52.826Z,98089.13
2022-08-19T09:36:55.041Z,98093.34
2022-08-19T09:37:59.765Z,98094.47
2022-08-19T09:39:02.596Z,98088.66
2022-08-19T09:40:05.339Z,98094.41
2022-08-19T09:41:17.488Z,98092.13
2022-08-19T09:42:30.283Z,98090.19
2022-08-19T09:43:44.637Z,98085.50
2022-08-19T09:44:49.465Z,98088.63
2022-08-19T09:45:50.961Z,98092.44
2022-08-19T09:46:52.536Z,98095.56
2022-08-19T09:47:55.189Z,98091.34
2022-08-19T09:49:06.102Z,98089.38
2022-08-19T09:50:11.102Z,98087.03
2022-08-19T09:51:25.377Z,98089.34
2022-08-19T09:52:32.789Z,98091.63
2022-08-19T09:53:39.123Z,98093.91
2022-08-19T09:54:41.647Z,98092.38
2022-08-19T09:55:45.938Z,98093.91
2022-08-19T09:56:47.772Z,98095.06
2022-08-19T09:57:49.343Z,98091.63
2022-08-19T09:58:51.390Z,98095.84
2022-08-19T09:59:52.899Z,98096.59
2022-08-19T10:00:56.346Z,98098.19
2022-08-19T10:02:03.848Z,98099.72
2022-08-19T10:03:12.587Z,98096.28
2022-08-19T10:04:20.305Z,98102.44
2022-08-19T10:05:26.830Z,98095.16
2022-08-19T10:06:46.100Z,98100.16
2022-08-19T10:07:48.747Z,98098.19
2022-08-19T10:08:51.092Z,98091.91
2022-08-19T10:09:52.650Z,98098.47
2022-08-19T10:10:55.235Z,98095.03
2022-08-19T10:11:56.746Z,98092.69
2022-08-19T10:12:58.274Z,98092.72
2022-08-19T10:14:00.372Z,98088.13
2022-08-19T10:15:02.265Z,98080.00
2022-08-19T10:16:09.961Z,98080.00
2022-08-19T10:17:19.320Z,98086.94
2022-08-19T10:18:24.782Z,98089.16
2022-08-19T10:19:27.171Z,98088.38
2022-08-19T10:20:28.755Z,98092.25
2022-08-19T10:21:33.507Z,98094.50
2022-08-19T10:22:35.205Z,98095.28
2022-08-19T10:23:39.116Z,98091.34
2022-08-19T10:24:41.436Z,98086.69
2022-08-19T10:25:44.120Z,98089.47
2022-08-19T10:26:45.599Z,98085.59
2022-08-19T10:27:51.310Z,98087.84
2022-08-19T10:28:53.795Z,98087.16
2022-08-19T10:29:56.400Z,98084.84
2022-08-19T10:31:12.119Z,98083.25
2022-08-19T10:32:14.365Z,98082.47
2022-08-19T10:33:15.937Z,98075.59
2022-08-19T10:34:48.321Z,98076.34
2022-08-19T10:35:59.852Z,98072.06
2022-08-19T10:37:01.917Z,98081.00
2022-08-19T10:38:04.020Z,98077.06
2022-08-19T10:39:08.643Z,98080.59
2022-08-19T10:40:10.872Z,98073.22
2022-08-19T10:41:18.474Z,98071.31
2022-08-19T10:42:20.426Z,98076.63
2022-08-19T10:43:22.126Z,98074.66
2022-08-19T10:44:24.103Z,98065.34
2022-08-19T10:45:25.676Z,98066.88
2022-08-19T10:46:30.426Z,98063.72
2022-08-19T10:47:34.313Z,98065.25
2022-08-19T10:48:35.904Z,98063.34
2022-08-19T10:49:37.405Z,98065.25
2022-08-19T10:50:39.002Z,98066.75
2022-08-19T10:51:47.767Z,98066.69
2022-08-19T10:52:51.186Z,98071.97
2022-08-19T10:53:53.030Z,98075.06
2022-08-19T10:54:54.671Z,98071.16
2022-08-19T10:55:56.195Z,98070.28
2022-08-19T10:56:57.862Z,98073.41
2022-08-19T10:58:02.643Z,98066.81
2022-08-19T10:59:05.835Z,98073.34
2022-08-19T11:00:07.852Z,98070.13
2022-08-19T11:01:09.454Z,98064.69
2022-08-19T11:02:12.056Z,98065.34
2022-08-19T11:03:13.594Z,98071.47
2022-08-19T11:04:15.588Z,98072.00
2022-08-19T11:05:17.753Z,98073.41
2022-08-19T11:06:20.331Z,98074.63
2022-08-19T11:07:21.816Z,98069.50
2022-08-19T11:08:24.141Z,98068.25
2022-08-19T11:09:33.528Z,98073.16
2022-08-19T11:10:35.944Z,98071.50
2022-08-19T11:11:39.369Z,98065.09
2022-08-19T11:12:41.564Z,98073.78
2022-08-19T11:13:43.654Z,98067.88
2022-08-19T11:14:45.159Z,98068.94
2022-08-19T11:15:46.693Z,98069.41
2022-08-19T11:16:49.708Z,98070.59
2022-08-19T11:17:52.472Z,98061.28
2022-08-19T11:18:57.463Z,98071.72
2022-08-19T11:19:58.962Z,98071.47
2022-08-19T11:21:12.978Z,98074.50
2022-08-19T11:22:16.193Z,98071.94
2022-08-19T11:23:21.331Z,98070.66
2022-08-19T11:24:26.219Z,98069.94
2022-08-19T11:25:27.772Z,98070.09
2022-08-19T11:26:30.718Z,98068.28
2022-08-19T11:27:32.326Z,98069.91
2022-08-19T11:28:33.813Z,98062.19
2022-08-19T11:29:36.738Z,98070.31
2022-08-19T11:30:39.559Z,98057.47
2022-08-19T11:31:44.351Z,98066.22
2022-08-19T11:32:49.273Z,98065.97
2022-08-19T11:33:51.139Z,98069.63
2022-08-19T11:34:52.676Z,98061.91
2022-08-19T11:35:54.588Z,98070.44
2022-08-19T11:36:56.866Z,98068.56
2022-08-19T11:37:58.348Z,98070.19
2022-08-19T11:39:01.126Z,98071.09
2022-08-19T11:40:02.759Z,98077.72
2022-08-19T11:41:07.709Z,98073.19
2022-08-19T11:42:09.408Z,98073.50
2022-08-19T11:43:10.875Z,98072.84
2022-08-19T11:44:12.856Z,98072.94
2022-08-19T11:45:14.514Z,98071.75
2022-08-19T11:46:17.821Z,98065.09
2022-08-19T11:47:20.194Z,98063.22
2022-08-19T11:48:23.801Z,98064.06
2022-08-19T11:49:25.610Z,98059.84
2022-08-19T11:50:27.146Z,98063.72
2022-08-19T11:51:29.352Z,98057.84
2022-08-19T11:52:31.085Z,98065.94
2022-08-19T11:53:33.869Z,98061.63
2022-08-19T11:54:35.845Z,98069.41
2022-08-19T11:55:39.461Z,98067.06
2022-08-19T11:56:46.318Z,98067.88
2022-08-19T11:57:47.896Z,98064.03
2022-08-19T11:58:50.038Z,98060.56
2022-08-19T11:59:52.928Z,98068.75
2022-08-19T12:00:54.495Z,98078.47
2022-08-19T12:01:56.313Z,98069.97
2022-08-19T12:02:58.479Z,98065.31
2022-08-19T12:04:00.930Z,98068.38
2022-08-19T12:05:02.575Z,98071.06
2022-08-19T12:06:09.669Z,98064.00
2022-08-19T12:07:11.226Z,98064.66
2022-08-19T12:08:13.370Z,98069.56
2022-08-19T12:09:14.921Z,98061.13
2022-08-19T12:10:18.442Z,98059.94
2022-08-19T12:11:21.101Z,98055.22
2022-08-19T12:12:22.639Z,98060.94
2022-08-19T12:13:24.181Z,98062.00
2022-08-19T12:14:25.709Z,98054.59
2022-08-19T12:15:28.024Z,98056.84
2022-08-19T12:16:30.753Z,98056.59
2022-08-19T12:17:32.259Z,98051.47
2022-08-19T12:18:33.747Z,98051.00
2022-08-19T12:19:37.324Z,98059.09
2022-08-19T12:20:40.443Z,98050.03
2022-08-19T12:21:42.006Z,98056.94
2022-08-19T12:22:44.002Z,98048.09
2022-08-19T12:23:45.507Z,98049.66
2022-08-19T12:24:47.282Z,98052.28
2022-08-19T12:25:50.143Z,98053.38
2022-08-19T12:26:53.711Z,98045.53
2022-08-19T12:27:57.535Z,98047.06
2022-08-19T12:28:59.907Z,98042.31
2022-08-19T12:30:01.562Z,98048.00
2022-08-19T12:31:04.552Z,98045.00
2022-08-19T12:32:06.075Z,98049.72
2022-08-19T12:33:07.776Z,98048.53
2022-08-19T12:34:09.333Z,98044.28
2022-08-19T12:35:10.873Z,98052.94